sensor_id;sensor_type;location;lat;lon;timestamp;pressure;altitude;pressure_sealevel;temperature;humidity
36454;BME280;22478;51.740;-1.314;2023-02-13T00:00:59;102211.30;;;3.74;100.00
36454;BME280;22478;51.740;-1.314;2023-02-13T00:03:26;102210.78;;;2.28;100.00
36454;BME280;22478;51.740;-1.314;2023-02-13T00:05:54;102206.43;;;2.46;100.00
36454;BME280;22478;51.740;-1.314;2023-02-13T00:08:21;102202.57;;;2.03;100.00
36454;BME280;22478;51.740;-1.314;2023-02-13T00:10:48;102197.79;;;2.08;100.00
36454;BME280;22478;51.740;-1.314;2023-02-13T00:13:15;102198.44;;;3.01;100.00
36454;BME280;22478;51.740;-1.314;2023-02-13T00:15:42;102212.15;;;-0.87;100.00
36454;BME280;22478;51.740;-1.314;2023-02-13T00:18:15;102202.81;;;2.26;100.00
36454;BME280;22478;51.740;-1.314;2023-02-13T00:20:56;102202.62;;;1.79;100.00
36454;BME280;22478;51.740;-1.314;2023-02-13T00:23:24;102202.54;;;1.56;100.00
36454;BME280;22478;51.740;-1.314;2023-02-13T00:25:51;102203.87;;;2.22;100.00
36454;BME280;22478;51.740;-1.314;2023-02-13T00:28:18;102199.83;;;2.23;100.00
36454;BME280;22478;51.740;-1.314;2023-02-13T00:30:46;102202.99;;;2.45;100.00
36454;BME280;22478;51.740;-1.314;2023-02-13T00:33:14;102199.81;;;2.22;100.00
36454;BME280;22478;51.740;-1.314;2023-02-13T00:35:41;102197.96;;;2.42;100.00
36454;BME280;22478;51.740;-1.314;2023-02-13T00:38:09;102193.58;;;3.00;100.00
36454;BME280;22478;51.740;-1.314;2023-02-13T00:40:36;102197.62;;;2.18;100.00
36454;BME280;22478;51.740;-1.314;2023-02-13T00:43:03;102198.88;;;2.76;100.00
36454;BME280;22478;51.740;-1.314;2023-02-13T00:45:30;102197.86;;;3.14;100.00
36454;BME280;22478;51.740;-1.314;2023-02-13T00:47:57;102194.45;;;3.08;100.00
36454;BME280;22478;51.740;-1.314;2023-02-13T00:50:25;102193.80;;;3.14;100.00
36454;BME280;22478;51.740;-1.314;2023-02-13T00:52:52;102190.77;;;2.67;100.00
36454;BME280;22478;51.740;-1.314;2023-02-13T00:55:19;102192.29;;;1.82;100.00
36454;BME280;22478;51.740;-1.314;2023-02-13T00:57:46;102186.58;;;1.86;100.00
36454;BME280;22478;51.740;-1.314;2023-02-13T01:00:14;102189.21;;;2.71;100.00
36454;BME280;22478;51.740;-1.314;2023-02-13T01:02:41;102189.26;;;3.50;100.00
36454;BME280;22478;51.740;-1.314;2023-02-13T01:05:09;102188.89;;;3.48;100.00
36454;BME280;22478;51.740;-1.314;2023-02-13T01:07:36;102188.49;;;3.32;100.00
36454;BME280;22478;51.740;-1.314;2023-02-13T01:10:04;102187.60;;;4.02;100.00
36454;BME280;22478;51.740;-1.314;2023-02-13T01:12:31;102186.81;;;2.03;100.00
36454;BME280;22478;51.740;-1.314;2023-02-13T01:14:59;102184.12;;;2.40;100.00
36454;BME280;22478;51.740;-1.314;2023-02-13T01:17:26;102182.26;;;2.98;100.00
36454;BME280;22478;51.740;-1.314;2023-02-13T01:19:54;102183.95;;;1.29;100.00
36454;BME280;22478;51.740;-1.314;2023-02-13T01:22:20;102177.23;;;2.48;100.00
36454;BME280;22478;51.740;-1.314;2023-02-13T01:24:47;102178.99;;;2.14;100.00
36454;BME280;22478;51.740;-1.314;2023-02-13T01:27:15;102176.91;;;3.38;100.00
36454;BME280;22478;51.740;-1.314;2023-02-13T01:29:42;102179.76;;;0.72;100.00
36454;BME280;22478;51.740;-1.314;2023-02-13T01:32:10;102180.97;;;2.33;100.00
36454;BME280;22478;51.740;-1.314;2023-02-13T01:34:37;102182.96;;;2.38;100.00
36454;BME280;22478;51.740;-1.314;2023-02-13T01:37:05;102182.14;;;2.75;100.00
36454;BME280;22478;51.740;-1.314;2023-02-13T01:39:32;102186.51;;;2.57;100.00
36454;BME280;22478;51.740;-1.314;2023-02-13T01:42:00;102186.56;;;3.08;100.00
36454;BME280;22478;51.740;-1.314;2023-02-13T01:45:00;102190.04;;;1.98;100.00
36454;BME280;22478;51.740;-1.314;2023-02-13T01:47:35;102189.25;;;2.07;100.00
36454;BME280;22478;51.740;-1.314;2023-02-13T01:50:09;102188.54;;;2.40;100.00
36454;BME280;22478;51.740;-1.314;2023-02-13T01:52:39;102189.48;;;2.41;100.00
36454;BME280;22478;51.740;-1.314;2023-02-13T01:55:07;102183.34;;;2.18;100.00
36454;BME280;22478;51.740;-1.314;2023-02-13T01:57:37;102187.98;;;2.56;100.00
36454;BME280;22478;51.740;-1.314;2023-02-13T02:00:08;102190.24;;;2.02;100.00
36454;BME280;22478;51.740;-1.314;2023-02-13T02:02:39;102185.73;;;2.39;100.00
36454;BME280;22478;51.740;-1.314;2023-02-13T02:05:08;102189.88;;;2.14;100.00
36454;BME280;22478;51.740;-1.314;2023-02-13T02:07:38;102187.58;;;2.26;100.00
36454;BME280;22478;51.740;-1.314;2023-02-13T02:10:15;102195.65;;;1.68;100.00
36454;BME280;22478;51.740;-1.314;2023-02-13T02:12:46;102190.16;;;1.90;100.00
36454;BME280;22478;51.740;-1.314;2023-02-13T02:15:15;102187.52;;;2.70;100.00
36454;BME280;22478;51.740;-1.314;2023-02-13T02:17:42;102182.65;;;2.32;100.00
36454;BME280;22478;51.740;-1.314;2023-02-13T02:20:20;102184.08;;;1.68;100.00
36454;BME280;22478;51.740;-1.314;2023-02-13T02:23:09;102177.82;;;2.33;100.00
36454;BME280;22478;51.740;-1.314;2023-02-13T02:26:14;102171.93;;;2.83;100.00
36454;BME280;22478;51.740;-1.314;2023-02-13T02:29:06;102173.95;;;3.09;100.00
36454;BME280;22478;51.740;-1.314;2023-02-13T02:32:23;102165.40;;;3.75;100.00
36454;BME280;22478;51.740;-1.314;2023-02-13T02:34:59;102166.43;;;2.02;100.00
36454;BME280;22478;51.740;-1.314;2023-02-13T02:37:39;102167.72;;;1.93;100.00
36454;BME280;22478;51.740;-1.314;2023-02-13T02:40:19;102164.18;;;2.20;100.00
36454;BME280;22478;51.740;-1.314;2023-02-13T02:42:58;102167.18;;;1.94;100.00
36454;BME280;22478;51.740;-1.314;2023-02-13T02:45:35;102162.56;;;1.93;100.00
36454;BME280;22478;51.740;-1.314;2023-02-13T02:48:09;102158.47;;;2.57;100.00
36454;BME280;22478;51.740;-1.314;2023-02-13T02:50:41;102156.05;;;3.17;100.00
36454;BME280;22478;51.740;-1.314;2023-02-13T02:53:19;102157.56;;;2.70;100.00
36454;BME280;22478;51.740;-1.314;2023-02-13T02:55:53;102160.79;;;1.46;100.00
36454;BME280;22478;51.740;-1.314;2023-02-13T02:58:27;102159.38;;;2.02;100.00
36454;BME280;22478;51.740;-1.314;2023-02-13T03:00:58;102157.90;;;1.29;100.00
36454;BME280;22478;51.740;-1.314;2023-02-13T03:03:28;102155.58;;;2.65;100.00
36454;BME280;22478;51.740;-1.314;2023-02-13T03:05:56;102153.47;;;2.60;100.00
36454;BME280;22478;51.740;-1.314;2023-02-13T03:08:28;102157.81;;;2.80;100.00
36454;BME280;22478;51.740;-1.314;2023-02-13T03:10:55;102155.09;;;1.75;100.00
36454;BME280;22478;51.740;-1.314;2023-02-13T03:13:38;102156.07;;;3.79;100.00
36454;BME280;22478;51.740;-1.314;2023-02-13T03:16:09;102156.06;;;4.25;100.00
36454;BME280;22478;51.740;-1.314;2023-02-13T03:18:41;102155.56;;;4.24;100.00
36454;BME280;22478;51.740;-1.314;2023-02-13T03:21:15;102152.38;;;2.40;100.00
36454;BME280;22478;51.740;-1.314;2023-02-13T03:23:49;102153.16;;;3.08;100.00
36454;BME280;22478;51.740;-1.314;2023-02-13T03:26:40;102159.04;;;1.04;100.00
36454;BME280;22478;51.740;-1.314;2023-02-13T03:29:20;102148.44;;;3.28;100.00
36454;BME280;22478;51.740;-1.314;2023-02-13T03:31:54;102144.93;;;2.90;100.00
36454;BME280;22478;51.740;-1.314;2023-02-13T03:34:24;102140.15;;;3.55;100.00
36454;BME280;22478;51.740;-1.314;2023-02-13T03:36:58;102142.90;;;1.62;100.00
36454;BME280;22478;51.740;-1.314;2023-02-13T03:39:35;102148.66;;;1.12;100.00
36454;BME280;22478;51.740;-1.314;2023-02-13T03:42:11;102143.64;;;2.46;100.00
36454;BME280;22478;51.740;-1.314;2023-02-13T03:44:45;102143.15;;;2.51;100.00
36454;BME280;22478;51.740;-1.314;2023-02-13T03:47:14;102147.70;;;2.42;100.00
36454;BME280;22478;51.740;-1.314;2023-02-13T03:49:45;102142.32;;;2.11;100.00
36454;BME280;22478;51.740;-1.314;2023-02-13T03:52:16;102137.77;;;3.17;100.00
36454;BME280;22478;51.740;-1.314;2023-02-13T03:54:48;102137.22;;;2.70;100.00
36454;BME280;22478;51.740;-1.314;2023-02-13T03:57:19;102140.39;;;3.74;100.00
36454;BME280;22478;51.740;-1.314;2023-02-13T03:59:47;102140.54;;;2.59;100.00
36454;BME280;22478;51.740;-1.314;2023-02-13T04:02:19;102142.58;;;1.88;100.00
36454;BME280;22478;51.740;-1.314;2023-02-13T04:04:51;102139.66;;;2.44;100.00
36454;BME280;22478;51.740;-1.314;2023-02-13T04:07:21;102145.39;;;0.49;100.00
36454;BME280;22478;51.740;-1.314;2023-02-13T04:09:50;102143.57;;;0.97;100.00
36454;BME280;22478;51.740;-1.314;2023-02-13T04:12:20;102143.22;;;2.21;100.00
36454;BME280;22478;51.740;-1.314;2023-02-13T04:14:56;102139.77;;;1.73;100.00
36454;BME280;22478;51.740;-1.314;2023-02-13T04:17:30;102137.81;;;2.78;100.00
36454;BME280;22478;51.740;-1.314;2023-02-13T04:20:00;102134.26;;;1.89;100.00
36454;BME280;22478;51.740;-1.314;2023-02-13T04:22:28;102133.05;;;2.36;100.00
36454;BME280;22478;51.740;-1.314;2023-02-13T04:24:55;102134.14;;;2.73;100.00
36454;BME280;22478;51.740;-1.314;2023-02-13T04:27:25;102134.44;;;1.41;100.00
36454;BME280;22478;51.740;-1.314;2023-02-13T04:29:53;102132.08;;;1.92;100.00
36454;BME280;22478;51.740;-1.314;2023-02-13T04:32:19;102129.80;;;1.84;100.00
36454;BME280;22478;51.740;-1.314;2023-02-13T04:34:46;102129.11;;;1.56;100.00
36454;BME280;22478;51.740;-1.314;2023-02-13T04:37:14;102129.88;;;1.90;100.00
36454;BME280;22478;51.740;-1.314;2023-02-13T04:39:41;102130.21;;;1.82;100.00
36454;BME280;22478;51.740;-1.314;2023-02-13T04:42:08;102137.16;;;1.77;100.00
36454;BME280;22478;51.740;-1.314;2023-02-13T04:44:36;102136.56;;;3.38;100.00
36454;BME280;22478;51.740;-1.314;2023-02-13T04:47:02;102138.44;;;2.03;100.00
36454;BME280;22478;51.740;-1.314;2023-02-13T04:49:30;102140.09;;;1.66;100.00
36454;BME280;22478;51.740;-1.314;2023-02-13T04:51:57;102148.59;;;-0.62;100.00
36454;BME280;22478;51.740;-1.314;2023-02-13T04:54:24;102139.00;;;1.44;100.00
36454;BME280;22478;51.740;-1.314;2023-02-13T04:56:51;102132.65;;;1.39;100.00
36454;BME280;22478;51.740;-1.314;2023-02-13T04:59:19;102135.53;;;0.49;100.00
36454;BME280;22478;51.740;-1.314;2023-02-13T05:01:45;102134.59;;;1.51;100.00
36454;BME280;22478;51.740;-1.314;2023-02-13T05:04:12;102130.64;;;1.29;100.00
36454;BME280;22478;51.740;-1.314;2023-02-13T05:06:40;102127.98;;;2.50;100.00
36454;BME280;22478;51.740;-1.314;2023-02-13T05:09:08;102134.88;;;1.70;100.00
36454;BME280;22478;51.740;-1.314;2023-02-13T05:11:36;102135.15;;;2.91;100.00
36454;BME280;22478;51.740;-1.314;2023-02-13T05:14:03;102140.68;;;3.09;100.00
36454;BME280;22478;51.740;-1.314;2023-02-13T05:16:30;102140.52;;;3.49;100.00
36454;BME280;22478;51.740;-1.314;2023-02-13T05:18:57;102147.25;;;1.33;100.00
36454;BME280;22478;51.740;-1.314;2023-02-13T05:21:24;102141.87;;;2.43;100.00
36454;BME280;22478;51.740;-1.314;2023-02-13T05:23:52;102141.95;;;2.73;100.00
36454;BME280;22478;51.740;-1.314;2023-02-13T05:26:19;102148.46;;;1.74;100.00
36454;BME280;22478;51.740;-1.314;2023-02-13T05:28:46;102144.02;;;2.54;100.00
36454;BME280;22478;51.740;-1.314;2023-02-13T05:31:13;102136.56;;;2.58;100.00
36454;BME280;22478;51.740;-1.314;2023-02-13T05:33:41;102137.92;;;3.57;100.00
36454;BME280;22478;51.740;-1.314;2023-02-13T05:36:08;102131.81;;;2.73;100.00
36454;BME280;22478;51.740;-1.314;2023-02-13T05:38:35;102130.63;;;3.32;100.00
36454;BME280;22478;51.740;-1.314;2023-02-13T05:41:03;102120.38;;;4.56;100.00
36454;BME280;22478;51.740;-1.314;2023-02-13T05:43:30;102132.70;;;2.05;100.00
36454;BME280;22478;51.740;-1.314;2023-02-13T05:46:02;102121.67;;;4.83;100.00
36454;BME280;22478;51.740;-1.314;2023-02-13T05:48:30;102129.73;;;2.96;100.00
36454;BME280;22478;51.740;-1.314;2023-02-13T05:50:57;102133.75;;;3.70;100.00
36454;BME280;22478;51.740;-1.314;2023-02-13T05:53:25;102124.01;;;2.54;100.00
36454;BME280;22478;51.740;-1.314;2023-02-13T05:55:52;102122.36;;;2.56;100.00
36454;BME280;22478;51.740;-1.314;2023-02-13T05:58:20;102122.88;;;2.85;100.00
36454;BME280;22478;51.740;-1.314;2023-02-13T06:00:47;102119.89;;;1.50;100.00
36454;BME280;22478;51.740;-1.314;2023-02-13T06:03:14;102116.51;;;3.33;100.00
36454;BME280;22478;51.740;-1.314;2023-02-13T06:05:41;102113.16;;;3.51;100.00
36454;BME280;22478;51.740;-1.314;2023-02-13T06:08:09;102115.83;;;2.00;100.00
36454;BME280;22478;51.740;-1.314;2023-02-13T06:10:36;102118.94;;;2.99;100.00
36454;BME280;22478;51.740;-1.314;2023-02-13T06:13:03;102118.56;;;2.73;100.00
36454;BME280;22478;51.740;-1.314;2023-02-13T06:15:30;102111.82;;;3.22;100.00
36454;BME280;22478;51.740;-1.314;2023-02-13T06:17:57;102120.53;;;3.75;100.00
36454;BME280;22478;51.740;-1.314;2023-02-13T06:20:25;102123.77;;;3.56;100.00
36454;BME280;22478;51.740;-1.314;2023-02-13T06:22:52;102125.83;;;2.13;100.00
36454;BME280;22478;51.740;-1.314;2023-02-13T06:25:20;102120.18;;;3.90;100.00
36454;BME280;22478;51.740;-1.314;2023-02-13T06:27:48;102115.01;;;5.20;98.67
36454;BME280;22478;51.740;-1.314;2023-02-13T06:30:16;102111.91;;;4.68;98.23
36454;BME280;22478;51.740;-1.314;2023-02-13T06:32:46;102118.11;;;2.83;100.00
36454;BME280;22478;51.740;-1.314;2023-02-13T06:35:14;102108.11;;;4.55;100.00
36454;BME280;22478;51.740;-1.314;2023-02-13T06:37:42;102114.46;;;3.37;100.00
36454;BME280;22478;51.740;-1.314;2023-02-13T06:40:11;102114.89;;;3.88;100.00
36454;BME280;22478;51.740;-1.314;2023-02-13T06:42:39;102115.07;;;3.07;100.00
36454;BME280;22478;51.740;-1.314;2023-02-13T06:45:08;102114.90;;;3.38;100.00
36454;BME280;22478;51.740;-1.314;2023-02-13T06:47:40;102113.61;;;4.94;98.13
36454;BME280;22478;51.740;-1.314;2023-02-13T06:50:08;102117.47;;;4.13;97.02
36454;BME280;22478;51.740;-1.314;2023-02-13T06:52:35;102116.97;;;5.29;93.99
36454;BME280;22478;51.740;-1.314;2023-02-13T06:55:03;102129.56;;;3.22;100.00
36454;BME280;22478;51.740;-1.314;2023-02-13T06:57:31;102129.46;;;2.03;100.00
36454;BME280;22478;51.740;-1.314;2023-02-13T06:59:58;102127.10;;;3.21;100.00
36454;BME280;22478;51.740;-1.314;2023-02-13T07:02:26;102119.06;;;3.21;100.00
36454;BME280;22478;51.740;-1.314;2023-02-13T07:04:54;102115.22;;;3.39;100.00
36454;BME280;22478;51.740;-1.314;2023-02-13T07:07:20;102117.51;;;2.79;100.00
36454;BME280;22478;51.740;-1.314;2023-02-13T07:09:47;102112.65;;;2.12;100.00
36454;BME280;22478;51.740;-1.314;2023-02-13T07:12:15;102118.75;;;3.10;100.00
36454;BME280;22478;51.740;-1.314;2023-02-13T07:14:42;102118.04;;;2.62;100.00
36454;BME280;22478;51.740;-1.314;2023-02-13T07:17:09;102115.45;;;2.86;100.00
36454;BME280;22478;51.740;-1.314;2023-02-13T07:19:36;102120.45;;;2.29;100.00
36454;BME280;22478;51.740;-1.314;2023-02-13T07:22:03;102117.82;;;2.42;100.00
36454;BME280;22478;51.740;-1.314;2023-02-13T07:24:30;102113.96;;;1.88;100.00
36454;BME280;22478;51.740;-1.314;2023-02-13T07:26:58;102109.33;;;2.22;100.00
36454;BME280;22478;51.740;-1.314;2023-02-13T07:29:25;102106.52;;;1.59;100.00
36454;BME280;22478;51.740;-1.314;2023-02-13T07:31:52;102106.75;;;1.59;100.00
36454;BME280;22478;51.740;-1.314;2023-02-13T07:34:19;102112.18;;;0.61;100.00
36454;BME280;22478;51.740;-1.314;2023-02-13T07:36:47;102115.71;;;1.43;100.00
36454;BME280;22478;51.740;-1.314;2023-02-13T07:39:15;102110.42;;;1.92;100.00
36454;BME280;22478;51.740;-1.314;2023-02-13T07:41:42;102118.48;;;2.44;100.00
36454;BME280;22478;51.740;-1.314;2023-02-13T07:44:14;102123.24;;;2.41;100.00
36454;BME280;22478;51.740;-1.314;2023-02-13T07:46:41;102121.35;;;1.33;100.00
36454;BME280;22478;51.740;-1.314;2023-02-13T07:49:08;102125.61;;;2.40;100.00
36454;BME280;22478;51.740;-1.314;2023-02-13T07:51:36;102127.13;;;2.80;100.00
36454;BME280;22478;51.740;-1.314;2023-02-13T07:54:03;102139.84;;;0.68;100.00
36454;BME280;22478;51.740;-1.314;2023-02-13T07:56:30;102137.48;;;2.08;100.00
36454;BME280;22478;51.740;-1.314;2023-02-13T07:59:02;102141.69;;;3.99;100.00
36454;BME280;22478;51.740;-1.314;2023-02-13T08:01:30;102141.69;;;2.57;100.00
36454;BME280;22478;51.740;-1.314;2023-02-13T08:03:57;102137.58;;;4.09;100.00
36454;BME280;22478;51.740;-1.314;2023-02-13T08:06:25;102135.10;;;2.50;100.00
36454;BME280;22478;51.740;-1.314;2023-02-13T08:08:52;102132.08;;;4.05;100.00
36454;BME280;22478;51.740;-1.314;2023-02-13T08:11:32;102137.69;;;3.09;100.00
36454;BME280;22478;51.740;-1.314;2023-02-13T08:14:05;102138.77;;;4.34;100.00
36454;BME280;22478;51.740;-1.314;2023-02-13T08:16:32;102135.28;;;4.54;100.00
36454;BME280;22478;51.740;-1.314;2023-02-13T08:18:59;102130.29;;;4.64;100.00
36454;BME280;22478;51.740;-1.314;2023-02-13T08:21:26;102141.32;;;1.58;100.00
36454;BME280;22478;51.740;-1.314;2023-02-13T08:23:53;102147.89;;;1.46;100.00
36454;BME280;22478;51.740;-1.314;2023-02-13T08:26:20;102141.39;;;3.24;100.00
36454;BME280;22478;51.740;-1.314;2023-02-13T08:28:53;102142.45;;;1.40;100.00
36454;BME280;22478;51.740;-1.314;2023-02-13T08:31:21;102142.50;;;1.63;100.00
36454;BME280;22478;51.740;-1.314;2023-02-13T08:33:48;102142.88;;;-1.29;100.00
36454;BME280;22478;51.740;-1.314;2023-02-13T08:36:15;102131.19;;;0.87;100.00
36454;BME280;22478;51.740;-1.314;2023-02-13T08:38:43;102126.53;;;1.74;100.00
36454;BME280;22478;51.740;-1.314;2023-02-13T08:41:10;102126.47;;;0.79;100.00
36454;BME280;22478;51.740;-1.314;2023-02-13T08:43:38;102131.42;;;1.44;100.00
36454;BME280;22478;51.740;-1.314;2023-02-13T08:46:05;102128.09;;;0.27;100.00
36454;BME280;22478;51.740;-1.314;2023-02-13T08:48:33;102126.61;;;0.48;100.00
36454;BME280;22478;51.740;-1.314;2023-02-13T08:51:04;102135.55;;;0.01;100.00
36454;BME280;22478;51.740;-1.314;2023-02-13T08:53:32;102131.62;;;0.57;100.00
36454;BME280;22478;51.740;-1.314;2023-02-13T08:56:00;102131.34;;;0.91;100.00
36454;BME280;22478;51.740;-1.314;2023-02-13T08:58:27;102135.09;;;0.37;100.00
36454;BME280;22478;51.740;-1.314;2023-02-13T09:00:54;102127.43;;;1.95;100.00
36454;BME280;22478;51.740;-1.314;2023-02-13T09:03:22;102129.00;;;1.49;100.00
36454;BME280;22478;51.740;-1.314;2023-02-13T09:05:49;102132.93;;;0.95;100.00
36454;BME280;22478;51.740;-1.314;2023-02-13T09:08:16;102129.27;;;2.15;100.00
36454;BME280;22478;51.740;-1.314;2023-02-13T09:10:44;102134.50;;;-0.72;100.00
36454;BME280;22478;51.740;-1.314;2023-02-13T09:13:11;102117.16;;;1.55;100.00
36454;BME280;22478;51.740;-1.314;2023-02-13T09:15:40;102116.97;;;1.62;100.00
36454;BME280;22478;51.740;-1.314;2023-02-13T09:18:07;102121.67;;;0.53;100.00
36454;BME280;22478;51.740;-1.314;2023-02-13T09:20:34;102114.69;;;1.25;100.00
36454;BME280;22478;51.740;-1.314;2023-02-13T09:23:01;102125.21;;;0.45;100.00
36454;BME280;22478;51.740;-1.314;2023-02-13T09:25:29;102123.02;;;0.93;100.00
36454;BME280;22478;51.740;-1.314;2023-02-13T09:27:56;102125.74;;;0.92;100.00
36454;BME280;22478;51.740;-1.314;2023-02-13T09:30:25;102128.86;;;0.92;100.00
36454;BME280;22478;51.740;-1.314;2023-02-13T09:32:53;102116.02;;;1.96;100.00
36454;BME280;22478;51.740;-1.314;2023-02-13T09:35:21;102117.86;;;3.19;100.00
36454;BME280;22478;51.740;-1.314;2023-02-13T09:37:48;102112.97;;;1.29;100.00
36454;BME280;22478;51.740;-1.314;2023-02-13T09:40:21;102117.15;;;0.68;100.00
36454;BME280;22478;51.740;-1.314;2023-02-13T09:42:50;102123.27;;;0.14;100.00
36454;BME280;22478;51.740;-1.314;2023-02-13T09:45:19;102129.51;;;-1.09;100.00
36454;BME280;22478;51.740;-1.314;2023-02-13T09:47:47;102123.03;;;1.54;100.00
36454;BME280;22478;51.740;-1.314;2023-02-13T09:50:19;102121.99;;;0.66;100.00
36454;BME280;22478;51.740;-1.314;2023-02-13T09:52:49;102118.44;;;2.99;100.00
36454;BME280;22478;51.740;-1.314;2023-02-13T09:55:19;102128.23;;;1.39;100.00
36454;BME280;22478;51.740;-1.314;2023-02-13T09:57:53;102121.25;;;2.20;100.00
36454;BME280;22478;51.740;-1.314;2023-02-13T10:00:28;102125.92;;;-0.10;100.00
36454;BME280;22478;51.740;-1.314;2023-02-13T10:03:17;102126.08;;;0.88;100.00
36454;BME280;22478;51.740;-1.314;2023-02-13T10:05:54;102115.63;;;0.01;100.00
36454;BME280;22478;51.740;-1.314;2023-02-13T10:08:33;102117.43;;;0.48;100.00
36454;BME280;22478;51.740;-1.314;2023-02-13T10:11:12;102107.82;;;0.82;100.00
36454;BME280;22478;51.740;-1.314;2023-02-13T10:13:54;102103.01;;;-0.07;100.00
36454;BME280;22478;51.740;-1.314;2023-02-13T10:16:29;102096.91;;;2.78;100.00
36454;BME280;22478;51.740;-1.314;2023-02-13T10:19:03;102089.17;;;1.99;100.00
36454;BME280;22478;51.740;-1.314;2023-02-13T10:21:40;102096.00;;;1.92;100.00
36454;BME280;22478;51.740;-1.314;2023-02-13T10:24:11;102091.41;;;0.43;100.00
36454;BME280;22478;51.740;-1.314;2023-02-13T10:26:41;102092.68;;;0.92;100.00
36454;BME280;22478;51.740;-1.314;2023-02-13T10:29:14;102093.46;;;2.16;100.00
36454;BME280;22478;51.740;-1.314;2023-02-13T10:31:46;102094.14;;;0.84;100.00
36454;BME280;22478;51.740;-1.314;2023-02-13T10:34:16;102090.25;;;2.77;100.00
36454;BME280;22478;51.740;-1.314;2023-02-13T10:36:45;102084.96;;;1.69;100.00
36454;BME280;22478;51.740;-1.314;2023-02-13T10:39:22;102088.61;;;1.23;100.00
36454;BME280;22478;51.740;-1.314;2023-02-13T10:41:52;102091.66;;;2.61;100.00
36454;BME280;22478;51.740;-1.314;2023-02-13T10:44:31;102091.47;;;3.10;100.00
36454;BME280;22478;51.740;-1.314;2023-02-13T10:47:11;102089.39;;;1.01;100.00
36454;BME280;22478;51.740;-1.314;2023-02-13T10:49:52;102086.85;;;1.76;100.00
36454;BME280;22478;51.740;-1.314;2023-02-13T10:52:34;102094.98;;;-0.50;100.00
36454;BME280;22478;51.740;-1.314;2023-02-13T10:55:14;102087.38;;;0.84;100.00
36454;BME280;22478;51.740;-1.314;2023-02-13T10:58:01;102093.42;;;1.08;100.00
36454;BME280;22478;51.740;-1.314;2023-02-13T11:00:39;102094.44;;;0.49;100.00
36454;BME280;22478;51.740;-1.314;2023-02-13T11:03:16;102085.19;;;2.17;100.00
36454;BME280;22478;51.740;-1.314;2023-02-13T11:05:51;102087.74;;;1.93;100.00
36454;BME280;22478;51.740;-1.314;2023-02-13T11:08:33;102097.77;;;1.26;100.00
36454;BME280;22478;51.740;-1.314;2023-02-13T11:11:01;102100.70;;;1.42;100.00
36454;BME280;22478;51.740;-1.314;2023-02-13T11:13:34;102096.29;;;1.21;100.00
36454;BME280;22478;51.740;-1.314;2023-02-13T11:16:08;102086.68;;;2.02;100.00
36454;BME280;22478;51.740;-1.314;2023-02-13T11:18:39;102089.35;;;2.32;100.00
36454;BME280;22478;51.740;-1.314;2023-02-13T11:21:09;102078.42;;;4.37;100.00
36454;BME280;22478;51.740;-1.314;2023-02-13T11:23:43;102077.45;;;1.77;100.00
36454;BME280;22478;51.740;-1.314;2023-02-13T11:26:14;102071.96;;;2.82;100.00
36454;BME280;22478;51.740;-1.314;2023-02-13T11:28:50;102057.54;;;4.12;100.00
36454;BME280;22478;51.740;-1.314;2023-02-13T11:31:25;102060.77;;;4.21;100.00
36454;BME280;22478;51.740;-1.314;2023-02-13T11:33:54;102053.26;;;4.31;100.00
36454;BME280;22478;51.740;-1.314;2023-02-13T11:36:26;102049.74;;;5.59;100.00
36454;BME280;22478;51.740;-1.314;2023-02-13T11:38:59;102056.68;;;5.41;100.00
36454;BME280;22478;51.740;-1.314;2023-02-13T11:41:27;102065.34;;;1.76;100.00
36454;BME280;22478;51.740;-1.314;2023-02-13T11:43:57;102062.61;;;4.15;100.00
36454;BME280;22478;51.740;-1.314;2023-02-13T11:46:27;102057.47;;;4.47;100.00
36454;BME280;22478;51.740;-1.314;2023-02-13T11:48:57;102052.79;;;5.25;100.00
36454;BME280;22478;51.740;-1.314;2023-02-13T11:51:42;102055.06;;;4.49;100.00
36454;BME280;22478;51.740;-1.314;2023-02-13T11:54:30;102055.56;;;4.25;100.00
36454;BME280;22478;51.740;-1.314;2023-02-13T11:57:01;102056.28;;;1.79;100.00
36454;BME280;22478;51.740;-1.314;2023-02-13T11:59:40;102054.64;;;2.12;100.00
36454;BME280;22478;51.740;-1.314;2023-02-13T12:02:15;102049.40;;;3.65;100.00
36454;BME280;22478;51.740;-1.314;2023-02-13T12:04:43;102052.32;;;4.82;100.00
36454;BME280;22478;51.740;-1.314;2023-02-13T12:07:18;102050.35;;;5.06;100.00
36454;BME280;22478;51.740;-1.314;2023-02-13T12:09:49;102053.64;;;4.31;100.00
36454;BME280;22478;51.740;-1.314;2023-02-13T12:12:26;102051.56;;;3.57;100.00
36454;BME280;22478;51.740;-1.314;2023-02-13T12:15:02;102058.30;;;1.82;100.00
36454;BME280;22478;51.740;-1.314;2023-02-13T12:17:32;102045.52;;;3.40;100.00
36454;BME280;22478;51.740;-1.314;2023-02-13T12:20:01;102041.72;;;4.91;100.00
36454;BME280;22478;51.740;-1.314;2023-02-13T12:22:33;102034.41;;;5.10;100.00
36454;BME280;22478;51.740;-1.314;2023-02-13T12:25:48;102030.17;;;5.94;100.00
36454;BME280;22478;51.740;-1.314;2023-02-13T12:28:24;102027.00;;;6.09;100.00
36454;BME280;22478;51.740;-1.314;2023-02-13T12:31:15;102025.96;;;6.81;100.00
36454;BME280;22478;51.740;-1.314;2023-02-13T12:34:08;102022.10;;;6.43;100.00
36454;BME280;22478;51.740;-1.314;2023-02-13T12:36:47;102022.90;;;6.91;98.92
36454;BME280;22478;51.740;-1.314;2023-02-13T12:39:25;102025.92;;;4.35;100.00
36454;BME280;22478;51.740;-1.314;2023-02-13T12:42:05;102030.83;;;3.84;100.00
36454;BME280;22478;51.740;-1.314;2023-02-13T12:44:49;102030.00;;;3.18;100.00
36454;BME280;22478;51.740;-1.314;2023-02-13T12:47:22;102018.68;;;6.31;100.00
36454;BME280;22478;51.740;-1.314;2023-02-13T12:50:07;102017.61;;;5.26;100.00
36454;BME280;22478;51.740;-1.314;2023-02-13T12:52:51;102025.13;;;6.75;100.00
36454;BME280;22478;51.740;-1.314;2023-02-13T12:55:36;102026.02;;;6.28;99.88
36454;BME280;22478;51.740;-1.314;2023-02-13T12:58:42;102026.33;;;4.39;100.00
36454;BME280;22478;51.740;-1.314;2023-02-13T13:01:20;102013.80;;;7.27;93.10